createdAt,value
2023-01-07T00:01:10.241Z,0.93
2023-01-07T00:03:38.384Z,0.70
2023-01-07T00:06:07.095Z,0.95
2023-01-07T00:08:36.126Z,0.80
2023-01-07T00:11:04.714Z,0.93
2023-01-07T00:13:34.148Z,0.68
2023-01-07T00:16:03.052Z,0.73
2023-01-07T00:18:30.953Z,0.68
2023-01-07T00:20:59.212Z,0.93
2023-01-07T00:23:27.401Z,0.90
2023-01-07T00:26:00.920Z,0.28
2023-01-07T00:28:28.733Z,0.70
2023-01-07T00:31:01.961Z,0.50
2023-01-07T00:33:29.708Z,0.70
2023-01-07T00:36:01.230Z,0.73
2023-01-07T00:38:29.176Z,0.57
2023-01-07T00:40:57.263Z,0.50
2023-01-07T00:43:25.303Z,0.70
2023-01-07T00:45:53.066Z,0.65
2023-01-07T00:48:23.769Z,0.80
2023-01-07T00:50:52.611Z,0.43
2023-01-07T00:53:20.463Z,0.68
2023-01-07T00:55:48.938Z,0.65
2023-01-07T00:58:17.914Z,0.70
2023-01-07T01:00:45.984Z,0.50
2023-01-07T01:03:14.104Z,0.47
2023-01-07T01:05:43.841Z,0.70
2023-01-07T01:08:12.037Z,0.45
2023-01-07T01:10:39.857Z,0.70
2023-01-07T01:13:07.908Z,0.82
2023-01-07T01:15:35.787Z,0.98
2023-01-07T01:18:03.677Z,0.80
2023-01-07T01:20:31.880Z,0.80
2023-01-07T01:23:01.099Z,0.63
2023-01-07T01:25:28.864Z,0.40
2023-01-07T01:27:56.722Z,0.93
2023-01-07T01:30:24.930Z,0.68
2023-01-07T01:32:53.253Z,0.98
2023-01-07T01:35:21.576Z,0.63
2023-01-07T01:37:51.280Z,0.68
2023-01-07T01:40:20.632Z,0.30
2023-01-07T01:42:49.318Z,0.73
2023-01-07T01:45:19.630Z,0.50
2023-01-07T01:47:48.225Z,0.90
2023-01-07T01:50:19.595Z,0.80
2023-01-07T01:52:49.814Z,0.85
2023-01-07T01:55:20.522Z,0.80
2023-01-07T01:57:51.446Z,0.32
2023-01-07T02:00:19.678Z,0.63
2023-01-07T02:02:53.540Z,0.77
2023-01-07T02:05:22.556Z,0.68
2023-01-07T02:07:50.501Z,0.90
2023-01-07T02:10:19.759Z,0.82
2023-01-07T02:12:54.316Z,0.88
2023-01-07T02:15:26.379Z,1.15
2023-01-07T02:18:06.572Z,0.68
2023-01-07T02:20:52.112Z,0.63
2023-01-07T02:23:34.828Z,0.60
2023-01-07T02:26:24.816Z,0.88
2023-01-07T02:29:07.473Z,0.93
2023-01-07T02:31:52.390Z,0.77
2023-01-07T02:34:23.924Z,1.00
2023-01-07T02:36:54.670Z,0.95
2023-01-07T02:39:37.082Z,0.80
2023-01-07T02:42:08.159Z,0.80
2023-01-07T02:44:38.139Z,1.38
2023-01-07T02:47:09.930Z,0.65
2023-01-07T02:49:37.753Z,0.80
2023-01-07T02:52:16.881Z,1.02
2023-01-07T02:54:45.093Z,0.88
2023-01-07T02:57:23.258Z,0.80
2023-01-07T02:59:59.116Z,1.25
2023-01-07T03:02:40.705Z,1.00
2023-01-07T03:05:16.989Z,0.40
2023-01-07T03:07:52.304Z,1.10
2023-01-07T03:10:25.034Z,1.00
2023-01-07T03:12:56.578Z,0.70
2023-01-07T03:15:29.225Z,1.00
2023-01-07T03:18:02.048Z,1.35
2023-01-07T03:20:32.093Z,1.00
2023-01-07T03:23:02.028Z,1.30
2023-01-07T03:25:31.013Z,0.85
2023-01-07T03:28:00.308Z,0.90
2023-01-07T03:30:31.206Z,0.70
2023-01-07T03:33:01.813Z,0.98
2023-01-07T03:35:31.891Z,1.20
2023-01-07T03:38:01.585Z,1.23
2023-01-07T03:40:30.079Z,0.93
2023-01-07T03:42:56.998Z,1.00
2023-01-07T03:45:27.779Z,1.30
2023-01-07T03:48:00.131Z,0.82
2023-01-07T03:50:34.703Z,0.90
2023-01-07T03:53:02.893Z,0.85
2023-01-07T03:55:33.716Z,1.13
2023-01-07T03:58:01.441Z,1.10
2023-01-07T04:00:29.235Z,1.50
2023-01-07T04:03:06.574Z,0.90
2023-01-07T04:05:39.210Z,0.90
2023-01-07T04:08:07.067Z,1.02
2023-01-07T04:10:38.020Z,1.00
2023-01-07T04:13:05.928Z,0.73
2023-01-07T04:15:34.020Z,0.98
2023-01-07T04:18:01.799Z,0.70
2023-01-07T04:20:31.614Z,1.00
2023-01-07T04:23:00.572Z,0.93
2023-01-07T04:25:29.020Z,0.85
2023-01-07T04:27:56.999Z,0.95
2023-01-07T04:30:25.180Z,1.10
2023-01-07T04:32:53.031Z,0.60
2023-01-07T04:35:21.120Z,0.85
2023-01-07T04:37:50.615Z,0.88
2023-01-07T04:40:18.629Z,1.00
2023-01-07T04:42:46.455Z,0.93
2023-01-07T04:45:14.647Z,0.45
2023-01-07T04:47:42.942Z,0.68
2023-01-07T04:50:11.253Z,1.13
2023-01-07T04:52:39.129Z,0.98
2023-01-07T04:55:11.070Z,0.85
2023-01-07T04:57:39.221Z,0.77
2023-01-07T05:00:08.650Z,1.10
2023-01-07T05:02:36.792Z,0.80
2023-01-07T05:05:06.646Z,0.63
2023-01-07T05:07:36.118Z,1.00
2023-01-07T05:10:04.122Z,0.70
2023-01-07T05:12:36.172Z,0.80
2023-01-07T05:15:05.589Z,0.85
2023-01-07T05:17:35.290Z,0.75
2023-01-07T05:20:05.412Z,0.73
2023-01-07T05:22:33.359Z,0.60
2023-01-07T05:25:01.349Z,0.65
2023-01-07T05:27:29.585Z,1.00
2023-01-07T05:30:00.445Z,0.70
2023-01-07T05:32:28.375Z,0.98
2023-01-07T05:34:56.648Z,0.85
2023-01-07T05:37:24.869Z,0.35
2023-01-07T05:39:53.433Z,0.55
2023-01-07T05:42:22.193Z,0.88
2023-01-07T05:44:51.230Z,0.50
2023-01-07T05:47:20.685Z,0.70
2023-01-07T05:49:48.496Z,0.65
2023-01-07T05:52:16.356Z,1.30
2023-01-07T05:54:44.178Z,0.45
2023-01-07T05:57:12.458Z,0.75
2023-01-07T05:59:40.269Z,0.75
2023-01-07T06:02:07.993Z,0.40
2023-01-07T06:04:37.130Z,0.60
2023-01-07T06:07:04.941Z,0.40
2023-01-07T06:09:32.752Z,0.47
2023-01-07T06:12:00.508Z,0.30
2023-01-07T06:14:28.376Z,0.40
2023-01-07T06:16:56.163Z,0.82
2023-01-07T06:19:24.207Z,0.35
2023-01-07T06:21:53.356Z,0.50
2023-01-07T06:24:21.172Z,0.40
2023-01-07T06:26:48.882Z,0.40
2023-01-07T06:29:16.590Z,0.77
2023-01-07T06:31:44.281Z,0.65
2023-01-07T06:34:12.124Z,0.60
2023-01-07T06:36:39.923Z,0.68
2023-01-07T06:39:09.119Z,0.38
2023-01-07T06:41:37.006Z,0.70
2023-01-07T06:44:04.794Z,0.70
2023-01-07T06:46:32.769Z,0.40
2023-01-07T06:49:00.522Z,0.50
2023-01-07T06:51:28.301Z,0.50
2023-01-07T06:53:56.096Z,0.68
2023-01-07T06:56:25.229Z,0.60
2023-01-07T06:58:53.073Z,0.50
2023-01-07T07:01:21.245Z,0.80
2023-01-07T07:03:49.097Z,0.70
2023-01-07T07:06:16.871Z,0.75
2023-01-07T07:08:44.707Z,0.50
2023-01-07T07:11:12.612Z,0.20
2023-01-07T07:13:41.851Z,0.47
2023-01-07T07:16:09.662Z,0.70
2023-01-07T07:18:37.433Z,0.60
2023-01-07T07:21:05.189Z,0.55
2023-01-07T07:23:33.010Z,0.50
2023-01-07T07:26:00.769Z,0.60
2023-01-07T07:28:28.593Z,0.82
2023-01-07T07:30:57.887Z,0.50
2023-01-07T07:33:25.748Z,0.30
2023-01-07T07:35:54.368Z,0.47
2023-01-07T07:38:22.184Z,0.38
2023-01-07T07:40:50.050Z,1.00
2023-01-07T07:43:17.874Z,0.65
2023-01-07T07:45:45.889Z,0.40
2023-01-07T07:48:15.724Z,0.68
2023-01-07T07:50:43.717Z,0.57
2023-01-07T07:53:11.646Z,0.75
2023-01-07T07:55:39.686Z,0.47
2023-01-07T07:58:07.680Z,0.40
2023-01-07T08:00:35.314Z,0.45
2023-01-07T08:03:03.305Z,0.40
2023-01-07T08:05:32.356Z,0.50
2023-01-07T08:07:59.962Z,0.52
2023-01-07T08:10:28.801Z,0.50
2023-01-07T08:12:56.561Z,0.65
2023-01-07T08:15:24.332Z,0.30
2023-01-07T08:17:57.868Z,0.50
2023-01-07T08:20:25.735Z,0.70
2023-01-07T08:22:54.894Z,0.43
2023-01-07T08:25:22.694Z,0.70
2023-01-07T08:27:50.473Z,0.47
2023-01-07T08:30:18.633Z,0.45
2023-01-07T08:32:46.489Z,0.50
2023-01-07T08:35:14.136Z,0.63
2023-01-07T08:37:41.911Z,0.45
2023-01-07T08:40:12.450Z,0.28
2023-01-07T08:42:41.053Z,0.65
2023-01-07T08:45:09.969Z,0.30
2023-01-07T08:47:37.759Z,0.63
2023-01-07T08:50:05.899Z,0.32
2023-01-07T08:52:33.811Z,0.43
2023-01-07T08:55:01.677Z,0.63
2023-01-07T08:57:30.917Z,0.60
2023-01-07T08:59:58.740Z,0.60
2023-01-07T09:02:26.419Z,0.73
2023-01-07T09:04:54.089Z,0.70
2023-01-07T09:07:21.823Z,0.70
2023-01-07T09:09:49.483Z,0.80
2023-01-07T09:12:17.301Z,0.80
2023-01-07T09:14:46.659Z,1.13
2023-01-07T09:17:14.614Z,1.30
2023-01-07T09:19:42.389Z,1.05
2023-01-07T09:22:10.351Z,1.33
2023-01-07T09:24:38.201Z,1.42
2023-01-07T09:27:06.178Z,1.30
2023-01-07T09:29:34.045Z,1.40
2023-01-07T09:32:03.270Z,1.52
2023-01-07T09:34:32.144Z,1.60
2023-01-07T09:36:59.881Z,1.40
2023-01-07T09:39:28.230Z,1.20
2023-01-07T09:41:59.824Z,1.55
2023-01-07T09:44:36.961Z,1.50
2023-01-07T09:47:06.715Z,1.58
2023-01-07T09:49:34.636Z,1.63
2023-01-07T09:52:05.886Z,1.83
2023-01-07T09:54:34.975Z,1.70
2023-01-07T09:57:03.191Z,1.40
2023-01-07T09:59:31.319Z,1.60
2023-01-07T10:02:04.139Z,1.80
2023-01-07T10:04:36.567Z,1.55
2023-01-07T10:07:12.928Z,1.55
2023-01-07T10:09:47.962Z,1.23
2023-01-07T10:12:20.268Z,1.80
2023-01-07T10:15:03.007Z,1.75
2023-01-07T10:17:38.060Z,1.73
2023-01-07T10:20:16.326Z,1.50
2023-01-07T10:22:48.908Z,1.33
2023-01-07T10:25:17.773Z,1.30
2023-01-07T10:27:47.505Z,1.55
2023-01-07T10:30:17.018Z,1.20
2023-01-07T10:32:46.823Z,1.30
2023-01-07T10:35:19.381Z,1.35
2023-01-07T10:37:47.378Z,1.30
2023-01-07T10:40:24.132Z,1.20
2023-01-07T10:42:55.821Z,1.13
2023-01-07T10:45:28.208Z,0.95
2023-01-07T10:48:19.683Z,1.40
2023-01-07T10:50:54.261Z,1.20
2023-01-07T10:53:30.216Z,1.23
2023-01-07T10:56:04.634Z,1.00
2023-01-07T10:58:35.548Z,0.80
2023-01-07T11:01:03.433Z,1.00
2023-01-07T11:03:31.350Z,0.60
2023-01-07T11:06:04.046Z,0.70
2023-01-07T11:08:37.430Z,0.80
2023-01-07T11:11:05.559Z,0.40
2023-01-07T11:13:34.996Z,0.63
2023-01-07T11:16:08.167Z,0.63
2023-01-07T11:18:39.997Z,0.98
2023-01-07T11:21:09.348Z,0.70
2023-01-07T11:23:57.231Z,0.52
2023-01-07T11:26:26.533Z,0.80
2023-01-07T11:28:55.416Z,0.73
2023-01-07T11:31:24.287Z,0.60
2023-01-07T11:34:02.474Z,0.50
2023-01-07T11:36:42.010Z,0.30
2023-01-07T11:39:10.570Z,0.80
2023-01-07T11:41:38.504Z,0.52
2023-01-07T11:44:16.123Z,0.70
2023-01-07T11:46:44.953Z,0.90
2023-01-07T11:49:20.632Z,0.73
2023-01-07T11:51:49.871Z,0.50
2023-01-07T11:54:21.218Z,0.45
2023-01-07T11:56:49.245Z,0.50
2023-01-07T11:59:26.729Z,0.60
2023-01-07T12:01:55.433Z,0.68
2023-01-07T12:04:24.182Z,0.73
2023-01-07T12:06:55.149Z,0.55
2023-01-07T12:09:27.821Z,0.90
2023-01-07T12:11:56.562Z,0.55
2023-01-07T12:14:26.497Z,0.60
2023-01-07T12:16:55.215Z,0.50
2023-01-07T12:19:31.583Z,0.75
2023-01-07T12:22:11.483Z,0.75
2023-01-07T12:25:04.229Z,0.50
2023-01-07T12:27:35.968Z,0.68
2023-01-07T12:30:15.152Z,0.43
2023-01-07T12:32:48.530Z,0.50
2023-01-07T12:35:19.079Z,0.73
2023-01-07T12:37:51.549Z,0.60
2023-01-07T12:40:23.157Z,0.60
2023-01-07T12:42:52.666Z,0.68
2023-01-07T12:45:22.253Z,0.60
2023-01-07T12:47:51.703Z,0.57
2023-01-07T12:50:22.909Z,0.63
2023-01-07T12:52:53.698Z,0.70
2023-01-07T12:55:22.941Z,0.60
2023-01-07T12:57:56.541Z,0.60
2023-01-07T13:00:26.602Z,0.57
2023-01-07T13:02:56.515Z,0.38
2023-01-07T13:05:26.179Z,0.40
2023-01-07T13:07:57.619Z,0.70
2023-01-07T13:10:26.518Z,0.32
2023-01-07T13:12:56.994Z,0.60
2023-01-07T13:15:27.851Z,0.35
2023-01-07T13:17:56.742Z,0.50
2023-01-07T13:20:40.437Z,0.38
2023-01-07T13:23:14.464Z,0.85
2023-01-07T13:25:49.838Z,0.52
2023-01-07T13:28:33.084Z,0.55
2023-01-07T13:31:18.918Z,0.52
2023-01-07T13:33:51.486Z,0.50
2023-01-07T13:36:26.513Z,0.30
2023-01-07T13:39:08.763Z,0.70
2023-01-07T13:41:41.193Z,0.50
2023-01-07T13:44:23.907Z,0.30
2023-01-07T13:46:51.928Z,0.70
2023-01-07T13:49:24.558Z,0.60
2023-01-07T13:51:52.545Z,0.50
2023-01-07T13:54:35.234Z,0.50
2023-01-07T13:57:27.128Z,0.60
2023-01-07T13:59:55.891Z,0.40
2023-01-07T14:02:24.543Z,0.40
2023-01-07T14:05:04.161Z,0.60
2023-01-07T14:07:32.144Z,0.40
2023-01-07T14:09:59.958Z,0.60
2023-01-07T14:12:42.495Z,0.30
2023-01-07T14:15:31.351Z,0.50
2023-01-07T14:18:06.898Z,0.50
2023-01-07T14:20:36.987Z,0.60
2023-01-07T14:23:08.949Z,0.50
2023-01-07T14:25:42.953Z,0.73
2023-01-07T14:28:20.239Z,0.47
2023-01-07T14:30:48.890Z,0.50
2023-01-07T14:33:21.144Z,0.57
2023-01-07T14:35:55.942Z,0.50
2023-01-07T14:38:42.438Z,0.75
2023-01-07T14:41:11.404Z,0.50
2023-01-07T14:43:46.690Z,0.50
2023-01-07T14:46:29.307Z,0.55
2023-01-07T14:49:12.423Z,0.70
2023-01-07T14:51:54.331Z,0.60
2023-01-07T14:54:50.718Z,0.68
2023-01-07T14:57:24.475Z,0.60
2023-01-07T15:00:11.125Z,0.90
2023-01-07T15:02:54.161Z,0.65
2023-01-07T15:05:45.139Z,0.68
2023-01-07T15:08:35.523Z,0.60
2023-01-07T15:11:22.227Z,0.60
2023-01-07T15:14:12.541Z,0.80
2023-01-07T15:16:40.417Z,0.70
2023-01-07T15:19:09.409Z,0.50
2023-01-07T15:21:43.567Z,0.68
2023-01-07T15:24:15.664Z,0.60
2023-01-07T15:26:47.332Z,0.70
2023-01-07T15:29:17.451Z,0.63
2023-01-07T15:31:49.612Z,0.80
2023-01-07T15:34:19.073Z,0.68
2023-01-07T15:36:47.902Z,0.80
2023-01-07T15:39:20.687Z,0.73
2023-01-07T15:41:51.519Z,0.57
2023-01-07T15:44:21.485Z,0.60
2023-01-07T15:46:49.411Z,0.70
2023-01-07T15:49:18.957Z,0.63
2023-01-07T15:51:48.983Z,0.70
2023-01-07T15:54:25.567Z,0.60
2023-01-07T15:56:55.261Z,0.55
2023-01-07T15:59:26.293Z,0.60
2023-01-07T16:01:55.963Z,0.80
2023-01-07T16:04:25.884Z,0.90
2023-01-07T16:06:57.055Z,0.88
2023-01-07T16:09:26.671Z,0.90
2023-01-07T16:11:54.673Z,0.90
2023-01-07T16:14:23.448Z,0.90
2023-01-07T16:17:04.720Z,0.90
2023-01-07T16:19:32.707Z,0.98
2023-01-07T16:22:01.239Z,1.05
2023-01-07T16:24:30.488Z,0.85
2023-01-07T16:26:59.682Z,1.20
2023-01-07T16:29:28.523Z,1.00
2023-01-07T16:31:57.526Z,1.20
2023-01-07T16:34:43.894Z,1.05
2023-01-07T16:37:13.821Z,1.10
2023-01-07T16:39:44.574Z,0.95
2023-01-07T16:42:23.355Z,1.20
2023-01-07T16:45:16.649Z,1.35
2023-01-07T16:47:44.663Z,1.05
2023-01-07T16:50:37.035Z,1.30
2023-01-07T16:53:05.557Z,1.40
2023-01-07T16:55:51.457Z,1.08
2023-01-07T16:58:26.023Z,1.30
2023-01-07T17:00:54.739Z,1.10
2023-01-07T17:03:23.001Z,1.02
2023-01-07T17:06:01.953Z,1.20
2023-01-07T17:08:30.597Z,1.40
2023-01-07T17:11:01.687Z,1.17
2023-01-07T17:13:32.391Z,1.45
2023-01-07T17:16:16.285Z,1.50
2023-01-07T17:18:44.140Z,1.30
2023-01-07T17:21:34.019Z,1.50
2023-01-07T17:24:01.938Z,1.27
2023-01-07T17:26:41.006Z,1.20
2023-01-07T17:29:13.121Z,1.30
2023-01-07T17:31:41.504Z,1.45
2023-01-07T17:34:11.262Z,1.38
2023-01-07T17:36:39.382Z,1.13
2023-01-07T17:39:07.302Z,1.25
2023-01-07T17:41:54.839Z,1.73
2023-01-07T17:44:22.691Z,1.33
2023-01-07T17:46:50.410Z,1.40
2023-01-07T17:49:18.120Z,1.48
2023-01-07T17:51:47.980Z,1.42
2023-01-07T17:54:19.741Z,1.52
2023-01-07T17:56:49.451Z,1.20
2023-01-07T17:59:18.127Z,1.23
2023-01-07T18:01:46.349Z,1.05
2023-01-07T18:04:14.325Z,1.30
2023-01-07T18:06:43.569Z,1.48
2023-01-07T18:09:13.524Z,1.25
2023-01-07T18:12:00.173Z,1.02
2023-01-07T18:14:29.360Z,0.90
2023-01-07T18:16:57.186Z,0.98
2023-01-07T18:19:24.931Z,1.45
2023-01-07T18:21:52.937Z,0.80
2023-01-07T18:24:21.812Z,1.15
2023-01-07T18:26:49.572Z,0.90
2023-01-07T18:29:17.338Z,1.10
2023-01-07T18:31:47.108Z,1.05
2023-01-07T18:34:15.822Z,0.90
2023-01-07T18:36:44.162Z,1.08
2023-01-07T18:39:17.548Z,1.02
2023-01-07T18:41:48.838Z,1.00
2023-01-07T18:44:16.927Z,0.85
2023-01-07T18:46:46.082Z,0.90
2023-01-07T18:49:13.860Z,1.27
2023-01-07T18:51:41.802Z,1.48
2023-01-07T18:54:09.712Z,1.13
2023-01-07T18:56:37.527Z,1.20
2023-01-07T18:59:05.709Z,1.00
2023-01-07T19:01:33.617Z,1.30
2023-01-07T19:04:05.102Z,1.00
2023-01-07T19:06:33.123Z,1.00
2023-01-07T19:09:00.892Z,1.30
2023-01-07T19:11:28.613Z,1.20
2023-01-07T19:13:56.425Z,1.00
2023-01-07T19:16:24.266Z,0.90
2023-01-07T19:18:53.079Z,1.23
2023-01-07T19:21:22.587Z,1.30
2023-01-07T19:23:50.372Z,1.15
2023-01-07T19:26:18.367Z,0.95
2023-01-07T19:28:46.298Z,1.17
2023-01-07T19:31:14.536Z,0.95
2023-01-07T19:33:42.451Z,0.95
2023-01-07T19:36:11.322Z,1.35
2023-01-07T19:38:40.916Z,0.90
2023-01-07T19:41:09.711Z,1.30
2023-01-07T19:43:39.012Z,0.95
2023-01-07T19:46:08.163Z,1.20
2023-01-07T19:48:36.085Z,1.38
2023-01-07T19:51:04.589Z,1.40
2023-01-07T19:53:33.684Z,1.33
2023-01-07T19:56:04.215Z,1.30
2023-01-07T19:58:32.691Z,1.40
2023-01-07T20:01:02.750Z,0.90
2023-01-07T20:03:31.642Z,1.40
2023-01-07T20:06:02.639Z,0.80
2023-01-07T20:08:30.780Z,1.33
2023-01-07T20:10:58.990Z,1.20
2023-01-07T20:13:28.886Z,1.30
2023-01-07T20:15:56.824Z,0.88
2023-01-07T20:18:24.733Z,1.08
2023-01-07T20:20:56.230Z,0.75
2023-01-07T20:23:24.069Z,1.08
2023-01-07T20:25:52.066Z,1.02
2023-01-07T20:28:21.061Z,1.10
2023-01-07T20:30:50.203Z,0.90
2023-01-07T20:33:18.159Z,1.58
2023-01-07T20:35:46.741Z,0.98
2023-01-07T20:38:14.763Z,1.70
2023-01-07T20:40:43.302Z,0.77
2023-01-07T20:43:12.793Z,1.10
2023-01-07T20:45:40.757Z,0.98
2023-01-07T20:48:11.701Z,1.30
2023-01-07T20:50:40.135Z,1.25
2023-01-07T20:53:08.047Z,0.90
2023-01-07T20:55:36.393Z,0.65
2023-01-07T20:58:04.293Z,0.70
2023-01-07T21:00:32.105Z,1.00
2023-01-07T21:03:00.256Z,0.82
2023-01-07T21:05:29.580Z,1.35
2023-01-07T21:07:59.344Z,1.02
2023-01-07T21:10:27.253Z,1.40
2023-01-07T21:12:55.001Z,1.20
2023-01-07T21:15:22.746Z,1.20
2023-01-07T21:17:50.510Z,0.90
2023-01-07T21:20:18.500Z,0.95
2023-01-07T21:22:48.249Z,1.05
2023-01-07T21:25:16.193Z,1.00
2023-01-07T21:27:44.084Z,0.70
2023-01-07T21:30:14.529Z,1.52
2023-01-07T21:32:42.505Z,0.80
2023-01-07T21:35:10.819Z,0.77
2023-01-07T21:37:39.130Z,1.40
2023-01-07T21:40:09.257Z,1.27
2023-01-07T21:42:37.225Z,1.05
2023-01-07T21:45:05.419Z,1.20
2023-01-07T21:47:33.131Z,1.10
2023-01-07T21:50:00.919Z,1.17
2023-01-07T21:52:28.797Z,1.23
2023-01-07T21:54:57.170Z,0.73
2023-01-07T21:57:26.419Z,1.30
2023-01-07T21:59:54.224Z,1.00
2023-01-07T22:02:22.261Z,1.50
2023-01-07T22:04:50.467Z,0.82
2023-01-07T22:07:19.178Z,1.20
2023-01-07T22:09:46.924Z,1.10
2023-01-07T22:12:14.833Z,1.00
2023-01-07T22:14:43.881Z,1.15
2023-01-07T22:17:13.434Z,1.40
2023-01-07T22:19:41.150Z,0.80
2023-01-07T22:22:08.960Z,1.33
2023-01-07T22:24:36.724Z,0.85
2023-01-07T22:27:04.757Z,1.02
2023-01-07T22:29:32.925Z,1.05
2023-01-07T22:32:02.213Z,0.80
2023-01-07T22:34:30.184Z,1.52
2023-01-07T22:37:00.144Z,1.30
2023-01-07T22:39:30.275Z,1.15
2023-01-07T22:41:59.258Z,1.20
2023-01-07T22:44:28.518Z,1.20
2023-01-07T22:46:56.632Z,1.15
2023-01-07T22:49:28.484Z,1.13
2023-01-07T22:51:56.407Z,1.38
2023-01-07T22:54:24.539Z,1.02
2023-01-07T22:56:52.492Z,1.02
2023-01-07T22:59:20.444Z,0.98
2023-01-07T23:01:48.335Z,1.08
2023-01-07T23:04:16.211Z,1.00
2023-01-07T23:06:45.553Z,1.05
2023-01-07T23:09:13.503Z,1.25
2023-01-07T23:11:50.956Z,0.80
2023-01-07T23:14:19.945Z,0.85
2023-01-07T23:16:48.108Z,0.98
2023-01-07T23:19:16.024Z,1.23
2023-01-07T23:21:46.044Z,1.08
2023-01-07T23:24:14.058Z,1.20
2023-01-07T23:26:41.933Z,1.05
2023-01-07T23:29:09.741Z,0.90
2023-01-07T23:31:37.841Z,0.80
2023-01-07T23:34:06.341Z,0.82
2023-01-07T23:36:34.711Z,1.10
2023-01-07T23:39:04.322Z,1.00
2023-01-07T23:41:32.699Z,0.80
2023-01-07T23:44:00.565Z,1.15
2023-01-07T23:46:28.529Z,1.05
2023-01-07T23:48:56.369Z,0.95
2023-01-07T23:51:24.425Z,0.68
2023-01-07T23:53:52.395Z,0.80
2023-01-07T23:56:22.521Z,0.73
2023-01-07T23:58:50.682Z,0.90
